Kenosha, WI (53144)

8:28 PM CDT on May 05, 2015 (GMT -0500)
Stonefield North | | Change Station
CLOSE
Current Station
Personal Weather Station
Location: Kenosha, WI
Elevation: 728 ft
Nearby Weather Stations

Elev 728 ft 42.62 °N, 87.87 °W | Updated 15 seconds ago

Overcast
Overcast
49.3 °F
Feels Like 49 °F
N
3.1
Wind Variable Wind from NE
Gusts 6.0 mph

Today
High -- | Low -- °F
--% Chance of Precip.
Yesterday
High -- | Low -- °F
Precip. -- in
5:41 AM 7:55 PM
Waning Gibbous, 96% visible
Pressure 30.25 in
Visibility 8.0 miles
Clouds Overcast 500 ft
Windchill 49 °F
Dew Point 49 °F
Humidity 99%
Rainfall 0.43 in
Snow Depth Not available.
UV 0 out of 12
Pollen 6.60 out of 12
Air Quality Not available.
Flu Activity Local Activity
METAR KENW 060053Z 08008KT 8SM OVC005 09/08 A3023 RMK AO2 CIG 004V008 SLP242 T00890078

More Conditions Fewer Conditions

Pressure 30.25 in
Visibility 8.0 miles
Clouds Overcast 500 ft
Windchill 49 °F
Dew Point 49 °F
Humidity 99%
Rainfall 0.43 in
Snow Depth Not available.
UV 0 out of 12
Pollen 6.60 out of 12
Air Quality Not available.
Flu Activity Local Activity
METAR KENW 060053Z 08008KT 8SM OVC005 09/08 A3023 RMK AO2 CIG 004V008 SLP242 T00890078

More Conditions Fewer Conditions

10-Day Weather Forecast

Almanac

Astronomy

May. 05, 2015 Rise Set
Actual Time
Civil Twilight
Nautical Twilight
Astronomical Twilight
Moon
Length of Visible Light
Length of Day
Tomorrow will be .
, % of the Moon is Illuminated

Today's Extremes

State Highs State Lows

Community

WunderPhotos

Upload Photos

1,819,032 photos uploaded!

WunderBlogs® & News

Nearby

Air Quality

  Air Quality AQ Index Pollutant
Not available.

Snow Depth

Station Depth Elevation

Earthquake Activity

City Distance Mag. Time & Date
Minimum magnitude displayed is 2.5.

Coastal Water Temperatures

Place Temperature

Stations

Nearby Weather Stations

Station Location Temp. Windchill Dew Point Humidity Wind Precip. Elev Updated Type